• Join FlightAware (Why Join?)
  • Login
  • US Flag 
08:51AM EST


 

Airport Tracker/Info


-or-


 

Live Flight TrackerFlight Track Log ✈ UAL4419 ✈ 22-Apr-2013 ✈ KIAH - KLIT

Flight Track Log - Related Links

Times and Time Zones

All times are in EDT time to prevent confusion due to time zone crossing. See the UAL4419 flight status page for this flight to view local times or setup timezone preferences in your user account.

Time Position Orientation Groundspeed Altitude Reporting Facility
EDT Latitude Longitude Course Direction KTS MPH feet Rate Location/Type
08:14PM 29.9767 -95.3008 50° Northeast 162 186 700  Level Houston Center
08:14PM 29.9839 -95.2908 50° Northeast 187 215 1,200 1,440 Climbing Houston Center
08:15PM 30.0169 -95.2814 14° North 249 287 1,900 1,740 Climbing Houston Center
08:15PM 30.0486 -95.2753 North 241 277 3,000 1,620 Climbing Houston Center
08:16PM 30.1189 -95.2558 13° North 252 290 4,400 1,740 Climbing Houston Center
08:17PM 30.1964 -95.2336 14° North 283 326 6,700 2,280 Climbing Houston Center
08:18PM 30.2747 -95.2106 14° North 290 334 9,200 2,220 Climbing Houston Center
08:19PM 30.3533 -95.1881 14° North 292 336 11,300 1,800 Climbing Houston Center
08:20PM 30.4461 -95.1611 14° North 316 364 12,900 1,740 Climbing Houston Center
08:21PM 30.5283 -95.1131 27° Northeast 329 379 15,000 1,860 Climbing Houston Center
08:22PM 30.6194 -95.0569 28° Northeast 333 383 16,800 1,500 Climbing Houston Center
08:23PM 30.7106 -95.0003 28° Northeast 340 391 18,200 1,200 Climbing Houston Center
08:24PM 30.7992 -94.9444 28° Northeast 355 409 19,300 1,020 Climbing Houston Center
08:25PM 30.8919 -94.8872 28° Northeast 373 429 20,300 960 Climbing Houston Center
08:26PM 30.9308 -94.8633 28° Northeast 359 413 20,800 960 Climbing Fort Worth Center
08:27PM 31.0256 -94.8028 29° Northeast 370 426 21,800 960 Climbing Fort Worth Center
08:28PM 31.1225 -94.7417 28° Northeast 380 437 22,800 1,020 Climbing Fort Worth Center
08:29PM 31.2356 -94.6681 29° Northeast 400 460 23,900 960 Climbing Fort Worth Center
08:30PM 31.3344 -94.5994 31° Northeast 405 466 24,800 840 Climbing Fort Worth Center
08:31PM 31.4372 -94.5281 31° Northeast 417 480 25,600 840 Climbing Fort Worth Center
08:32PM 31.5378 -94.4592 30° Northeast 417 480 26,500 840 Climbing Fort Worth Center
08:33PM 31.6386 -94.3903 30° Northeast 412 474 27,300 780 Climbing Fort Worth Center
08:34PM 31.7392 -94.3183 31° Northeast 412 474 28,100 780 Climbing Fort Worth Center
08:35PM 31.8375 -94.2492 31° Northeast 412 474 28,900 840 Climbing Fort Worth Center
08:36PM 31.9381 -94.1794 30° Northeast 412 474 29,800 840 Climbing Fort Worth Center
08:37PM 32.0406 -94.1097 30° Northeast 412 474 30,600 600 Climbing Fort Worth Center
08:38PM 32.1408 -94.0350 32° Northeast 412 474 31,000 180 Climbing Fort Worth Center
08:39PM 32.2350 -93.9653 32° Northeast 425 489 31,000  Level Fort Worth Center
08:40PM 32.3436 -93.8847 32° Northeast 436 502 31,000  Level Fort Worth Center
08:41PM 32.4500 -93.8117 30° Northeast 441 507 31,000  Level Fort Worth Center
08:42PM 32.5686 -93.7306 30° Northeast 441 507 31,000  Level Fort Worth Center
08:43PM 32.6667 -93.6600 31° Northeast 441 507 31,000  Level Fort Worth Center
08:44PM 32.7731 -93.5839 31° Northeast 441 507 31,000  Level Fort Worth Center
08:45PM 32.8811 -93.5050 32° Northeast 441 507 31,000  Level Fort Worth Center
08:46PM 32.9894 -93.4261 31° Northeast 441 507 31,000  Level Fort Worth Center
08:47PM 33.0975 -93.3494 31° Northeast 441 507 31,000 -60 Level Fort Worth Center
08:48PM 33.2036 -93.2725 31° Northeast 441 507 30,900 -960 Descending Fort Worth Center
08:49PM 33.3097 -93.1981 30° Northeast 441 507 29,100 -1,560 Descending Fort Worth Center
08:50PM 33.4094 -93.1236 32° Northeast 435 501 27,900 -1,140 Descending Fort Worth Center
08:51PM 33.5172 -93.0461 31° Northeast 435 501 26,900 -1,020 Descending Fort Worth Center
08:52PM 33.6153 -92.9739 32° Northeast 441 507 26,000 -1,440 Descending Memphis Center
08:53PM 33.7211 -92.8972 31° Northeast 455 524 24,300 -2,160 Descending Memphis Center
08:54PM 33.8228 -92.8250 31° Northeast 449 517 21,700 -2,820 Descending Memphis Center
08:55PM 33.9203 -92.7553 31° Northeast 425 489 18,700 -2,940 Descending Memphis Center
08:55PM 33.9817 -92.7044 34° Northeast 397 457 16,700 -2,940 Descending Memphis Center
08:56PM 34.0114 -92.6850 28° Northeast 409 471 15,800 -2,580 Descending Memphis Center
08:57PM 34.0917 -92.6219 33° Northeast 384 442 13,400 -2,700 Descending Memphis Center
08:58PM 34.1828 -92.5542 32° Northeast 384 442 10,400 -2,100 Descending Memphis Center
08:59PM 34.2672 -92.4908 32° Northeast 377 434 9,200 -1,200 Descending Memphis Center
08:59PM 34.2947 -92.4717 30° Northeast 307 353 8,800 -900 Descending Memphis Center
09:00PM 34.3369 -92.4372 34° Northeast 334 384 8,300 -1,140 Descending Memphis Center
09:00PM 34.3622 -92.4228 25° Northeast 289 333 7,800 -1,020 Descending Memphis Center
09:01PM 34.4067 -92.3861 34° Northeast 302 348 7,300 -900 Descending Memphis Center
09:01PM 34.4300 -92.3717 27° Northeast 287 330 6,900 -1,020 Descending Memphis Center
09:02PM 34.4744 -92.3350 34° Northeast 290 334 6,300 -1,020 Descending Memphis Center
09:02PM 34.4997 -92.3178 29° Northeast 287 330 5,900 -1,140 Descending Memphis Center
09:03PM 34.5461 -92.2836 31° Northeast 278 320 5,200 -900 Descending Memphis Center
09:03PM 34.5608 -92.2739 29° Northeast 272 313 5,000 -1,500 Descending Memphis Center
09:04PM 34.6094 -92.2344 34° Northeast 273 314 3,700 -1,800 Descending Memphis Center
09:04PM 34.6283 -92.2222 28° Northeast 265 305 3,200 -1,680 Descending Memphis Center